Astoria, Oregon
Current Conditions -  °F | °C
As of 11:55 PM on Wednesday 26 Nov 2014 (Local Time) from KAST Reporting Station
Light Rain Light Rain  
Wind Chill: 58°   Ceiling: 3500
Heat Index: 58°   Visibility: 4mi
Dew Point: 54°   Wind: 22mph
Humidity: 87%   Direction: 200°SSW
Pressure: 29.9"   Gusts: 36mph
Location:  46.19°N, 123.83°W
Report Text: KAST 270755Z AUTO 20019G31KT 4SM -RA BR SCT015 BKN035 OVC055 14/12 A2990 RMK AO2 PK WND 19031/0731 CIG 024 RWY 08 SLP125 P0004 T01440122 401610117
Loading
Personal Weather Stations






























Interactive Weather Map New forecast layout! Learn more

10-Day Weather Forecast

Advertisements
Track Severe Weather on mobile